首页
METAR-TAF:

METAR-TAF

机场 :

溫哥華國際機場

溫哥華, 不列颠哥伦比亚, 加拿大

纬度: 49-11N, 经度: 123-10W, 海拔: 3米

当前天气观测

该预报发布于1小时和5分钟前的14:00 UTC
风速9节,风向西
温度 14°C
湿度 77%
气压 1015 hPa
能見度: 32.2公里
多云层高于2200英尺
多云层高于3300英尺
多云层高于7800英尺

METAR: CYVR 121400Z 27009KT 20SM BKN022 BKN033 BKN078 14/10 A2998 RMK SC5SC1AC1 SLP155

时间: 08:05 (15:05 UTC)

预报

该预报发布于27分钟前的14:38 UTC
预报有效从12日的 15点(UTC)到 13日的 18点(UTC)
风速8节,风向西
能見度: 10公里
多云层高于3000英尺
多云层高于6000英尺
短暂存在
从 12日的 15点(UTC)到 12日的 20点(UTC)
多云层高于2000英尺
多云层高于6000英尺
从 12日的 2000点(UTC)
风速8节,风向西南
能見度: 10公里
少量云层高于3000英尺
散云层高于6000英尺
成为
从 13日的 04点(UTC)到 13日的 06点(UTC)
风速8节,风向
从 13日的 1500点(UTC)
风速10节,风向
能見度: 10公里
少量云层高于2000英尺
多云层高于6000英尺

TAF: CYVR 121438Z 1215/1318 28008KT P6SM BKN030 BKN060 TEMPO 1215/1220 BKN020 BKN060 FM122000 22008KT P6SM FEW030 SCT060 BECMG 1304/1306 09008KT FM131500 10010KT P6SM FEW020 BKN060 RMK NXT FCST BY 121800Z

超过4000个机场的气象观测和天气预报(METAR&TAF报告)。

可查询的气象台以黄色和红色小点在地图上表示。

将鼠标移到小点上方,可查看气象台名称。

然后点击查看天气观测和预报。

如需切换地图:点击带黑十字的绿色按钮放大地图;点击带横线的绿色按钮缩小地图;或者点击绿色箭头查看邻近地区的地图。


METAR-TAF: